createdAt,value
2018-08-30T00:03:07.087Z,22.55
2018-08-30T00:07:59.608Z,22.53
2018-08-30T00:12:52.171Z,22.47
2018-08-30T00:17:44.720Z,22.43
2018-08-30T00:22:37.211Z,22.36
2018-08-30T00:27:29.776Z,22.32
2018-08-30T00:32:22.285Z,22.27
2018-08-30T00:37:14.783Z,22.18
2018-08-30T00:42:07.340Z,22.10
2018-08-30T00:46:59.861Z,22.04
2018-08-30T00:51:52.409Z,21.96
2018-08-30T00:56:45.009Z,21.91
2018-08-30T01:01:37.661Z,21.88
2018-08-30T01:06:30.221Z,21.83
2018-08-30T01:11:22.751Z,21.79
2018-08-30T01:16:15.336Z,21.75
2018-08-30T01:21:07.878Z,21.68
2018-08-30T01:26:01.459Z,21.61
2018-08-30T01:30:54.018Z,21.57
2018-08-30T01:35:46.583Z,21.52
2018-08-30T01:40:39.125Z,21.46
2018-08-30T01:45:31.814Z,21.40
2018-08-30T01:50:24.373Z,21.36
2018-08-30T01:55:16.903Z,21.30
2018-08-30T02:00:09.382Z,21.24
2018-08-30T02:05:01.944Z,21.20
2018-08-30T02:09:54.488Z,21.15
2018-08-30T02:14:47.066Z,21.11
2018-08-30T02:19:39.542Z,21.08
2018-08-30T02:24:32.107Z,21.04
2018-08-30T02:29:24.641Z,21.04
2018-08-30T02:34:17.111Z,21.00
2018-08-30T02:39:09.996Z,20.96
2018-08-30T02:44:02.675Z,20.89
2018-08-30T02:48:55.253Z,20.80
2018-08-30T02:53:47.764Z,20.65
2018-08-30T02:58:40.279Z,20.57
2018-08-30T03:03:32.834Z,20.54
2018-08-30T03:08:25.375Z,20.54
2018-08-30T03:13:17.850Z,20.56
2018-08-30T03:18:11.494Z,20.55
2018-08-30T03:23:04.162Z,20.51
2018-08-30T03:27:56.627Z,20.48
2018-08-30T03:32:49.167Z,20.45
2018-08-30T03:37:41.690Z,20.37
2018-08-30T03:42:34.220Z,20.33
2018-08-30T03:47:26.684Z,20.33
2018-08-30T03:52:19.252Z,20.30
2018-08-30T03:57:11.947Z,20.30
2018-08-30T04:02:04.541Z,20.32
2018-08-30T04:06:57.096Z,20.33
2018-08-30T04:11:49.672Z,20.31
2018-08-30T04:16:42.211Z,20.25
2018-08-30T04:21:35.504Z,20.18
2018-08-30T04:26:28.469Z,20.12
2018-08-30T04:31:21.101Z,20.15
2018-08-30T04:36:13.607Z,20.07
2018-08-30T04:41:06.229Z,20.00
2018-08-30T04:45:58.785Z,19.94
2018-08-30T04:50:51.323Z,19.92
2018-08-30T04:55:43.869Z,19.93
2018-08-30T05:00:36.487Z,19.97
2018-08-30T05:05:29.089Z,19.93
2018-08-30T05:10:21.900Z,19.93
2018-08-30T05:15:14.576Z,19.94
2018-08-30T05:20:07.311Z,19.92
2018-08-30T05:25:00.124Z,19.93
2018-08-30T05:29:52.853Z,19.96
2018-08-30T05:34:45.317Z,20.03
2018-08-30T05:39:37.965Z,19.93
2018-08-30T05:44:30.534Z,19.71
2018-08-30T05:49:23.101Z,19.62
2018-08-30T05:54:15.829Z,19.61
2018-08-30T05:59:08.595Z,19.71
2018-08-30T06:04:01.149Z,19.78
2018-08-30T06:08:53.750Z,19.92
2018-08-30T06:13:46.441Z,19.91
2018-08-30T06:18:39.018Z,19.76
2018-08-30T06:23:31.609Z,19.77
2018-08-30T06:28:24.192Z,19.83
2018-08-30T06:33:16.760Z,19.80
2018-08-30T06:38:09.305Z,19.83
2018-08-30T06:43:01.899Z,19.86
2018-08-30T06:47:54.595Z,19.77
2018-08-30T06:52:47.204Z,19.67
2018-08-30T06:57:39.944Z,19.72
2018-08-30T07:02:32.518Z,19.76
2018-08-30T07:07:25.393Z,19.87
2018-08-30T07:12:17.945Z,19.87
2018-08-30T07:17:10.495Z,19.92
2018-08-30T07:22:03.096Z,20.00
2018-08-30T07:26:55.732Z,20.05
2018-08-30T07:31:48.249Z,20.11
2018-08-30T07:36:40.805Z,20.11
2018-08-30T07:41:33.356Z,20.06
2018-08-30T07:46:26.045Z,19.96
2018-08-30T07:51:18.552Z,19.86
2018-08-30T07:56:11.097Z,19.72
2018-08-30T08:01:03.626Z,19.69
2018-08-30T08:05:56.176Z,19.61
2018-08-30T08:10:48.719Z,19.57
2018-08-30T08:15:41.436Z,19.50
2018-08-30T08:20:34.088Z,19.47
2018-08-30T08:25:28.228Z,19.44
2018-08-30T08:30:20.735Z,19.49
2018-08-30T08:35:13.295Z,19.52
2018-08-30T08:40:05.806Z,19.49
2018-08-30T08:44:58.424Z,19.40
2018-08-30T08:49:51.719Z,19.31
2018-08-30T08:54:44.272Z,19.29
2018-08-30T08:59:36.800Z,19.25
2018-08-30T09:04:29.534Z,19.20
2018-08-30T09:09:22.129Z,19.25
2018-08-30T09:14:14.699Z,19.28
2018-08-30T09:19:07.556Z,19.27
2018-08-30T09:24:00.195Z,19.25
2018-08-30T09:28:52.804Z,19.21
2018-08-30T09:33:45.337Z,19.22
2018-08-30T09:38:37.898Z,19.25
2018-08-30T09:43:30.796Z,19.28
2018-08-30T09:48:23.279Z,19.34
2018-08-30T09:53:15.785Z,19.29
2018-08-30T09:58:08.463Z,19.18
2018-08-30T10:03:01.075Z,19.17
2018-08-30T10:07:53.546Z,19.24
2018-08-30T10:12:46.065Z,19.28
2018-08-30T10:17:38.554Z,19.30
2018-08-30T10:22:31.153Z,19.37
2018-08-30T10:27:23.706Z,19.40
2018-08-30T10:32:16.232Z,19.37
2018-08-30T10:37:08.845Z,19.31
2018-08-30T10:42:01.381Z,19.29
2018-08-30T10:46:53.924Z,19.27
2018-08-30T10:51:46.453Z,19.25
2018-08-30T10:56:39.066Z,19.29
2018-08-30T11:01:31.884Z,19.30
2018-08-30T11:06:24.434Z,19.39
2018-08-30T11:11:16.988Z,19.45
2018-08-30T11:16:09.547Z,19.49
2018-08-30T11:21:02.064Z,19.48
2018-08-30T11:25:54.633Z,19.47
2018-08-30T11:30:47.188Z,19.51
2018-08-30T11:35:39.801Z,19.47
2018-08-30T11:40:32.334Z,19.46
2018-08-30T11:45:24.957Z,19.41
2018-08-30T11:50:17.478Z,19.31
2018-08-30T11:55:09.993Z,19.27
2018-08-30T12:00:02.504Z,19.26
2018-08-30T12:04:55.081Z,19.33
2018-08-30T12:09:47.764Z,19.45
2018-08-30T12:14:40.315Z,19.49
2018-08-30T12:19:32.953Z,19.55
2018-08-30T12:24:25.534Z,19.65
2018-08-30T12:29:18.081Z,19.69
2018-08-30T12:34:10.756Z,19.71
2018-08-30T12:39:04.308Z,19.74
2018-08-30T12:43:57.109Z,19.72
2018-08-30T12:48:49.795Z,19.71
2018-08-30T12:53:42.421Z,19.68
2018-08-30T12:58:35.056Z,19.64
2018-08-30T13:03:27.784Z,19.64
2018-08-30T13:08:20.352Z,19.68
2018-08-30T13:13:13.060Z,19.80
2018-08-30T13:18:05.451Z,19.74
2018-08-30T13:22:58.359Z,19.72
2018-08-30T13:27:50.895Z,19.67
2018-08-30T13:32:43.743Z,19.71
2018-08-30T13:37:36.188Z,19.76
2018-08-30T13:42:28.870Z,19.82
2018-08-30T13:47:21.512Z,19.88
2018-08-30T13:52:13.938Z,19.89
2018-08-30T13:57:06.995Z,19.86
2018-08-30T14:01:59.585Z,19.78
2018-08-30T14:06:52.274Z,19.68
2018-08-30T14:11:44.880Z,19.66
2018-08-30T14:16:37.189Z,19.71
2018-08-30T14:21:29.759Z,19.76
2018-08-30T14:26:22.323Z,19.74
2018-08-30T14:31:14.910Z,19.77
2018-08-30T14:36:07.566Z,19.82
2018-08-30T14:41:00.381Z,19.85
2018-08-30T14:45:53.088Z,19.90
2018-08-30T14:50:45.605Z,19.90
2018-08-30T14:55:38.262Z,19.95
2018-08-30T15:00:30.885Z,19.97
2018-08-30T15:05:23.563Z,19.99
2018-08-30T15:10:16.060Z,20.02
2018-08-30T15:15:08.739Z,19.98
2018-08-30T15:20:01.473Z,19.95
2018-08-30T15:24:54.058Z,19.95
2018-08-30T15:29:46.751Z,19.95
2018-08-30T15:34:39.453Z,19.97
2018-08-30T15:39:32.200Z,19.99
2018-08-30T15:44:24.743Z,19.97
2018-08-30T15:49:18.567Z,19.97
2018-08-30T15:54:11.231Z,19.97
2018-08-30T15:59:03.758Z,19.90
2018-08-30T16:03:56.466Z,19.72
2018-08-30T16:08:49.161Z,19.45
2018-08-30T16:13:42.410Z,19.32
2018-08-30T16:18:35.088Z,19.23
2018-08-30T16:23:29.630Z,19.18
2018-08-30T16:28:23.073Z,19.17
2018-08-30T16:33:15.819Z,19.09
2018-08-30T16:38:08.538Z,18.94
2018-08-30T16:43:01.165Z,18.86
2018-08-30T16:47:53.770Z,18.73
2018-08-30T16:52:46.301Z,18.68
2018-08-30T16:57:38.765Z,18.67
2018-08-30T17:02:31.275Z,18.71
2018-08-30T17:07:23.959Z,18.74
2018-08-30T17:12:16.534Z,18.70
2018-08-30T17:17:09.236Z,18.67
2018-08-30T17:22:01.797Z,18.69
2018-08-30T17:26:54.313Z,18.67
2018-08-30T17:31:46.933Z,18.68
2018-08-30T17:36:39.579Z,18.71
2018-08-30T17:41:32.095Z,18.75
2018-08-30T17:46:24.816Z,18.74
2018-08-30T17:51:17.298Z,18.77
2018-08-30T17:56:09.896Z,18.80
2018-08-30T18:01:02.391Z,18.80
2018-08-30T18:05:55.056Z,18.78
2018-08-30T18:10:47.629Z,18.75
2018-08-30T18:15:40.184Z,18.70
2018-08-30T18:20:32.879Z,18.66
2018-08-30T18:25:25.491Z,18.59
2018-08-30T18:30:18.145Z,18.54
2018-08-30T18:35:10.673Z,18.45
2018-08-30T18:40:03.346Z,18.42
2018-08-30T18:44:55.976Z,18.37
2018-08-30T18:49:48.599Z,18.36
2018-08-30T18:54:41.191Z,18.36
2018-08-30T18:59:33.679Z,18.34
2018-08-30T19:04:26.248Z,18.30
2018-08-30T19:09:18.971Z,18.26
2018-08-30T19:14:11.724Z,18.21
2018-08-30T19:19:12.543Z,18.20
2018-08-30T19:24:05.132Z,18.21
2018-08-30T19:28:57.726Z,18.19
2018-08-30T19:33:50.388Z,18.16
2018-08-30T19:38:42.963Z,18.13
2018-08-30T19:43:37.054Z,18.10
2018-08-30T19:48:29.652Z,18.04
2018-08-30T19:53:22.174Z,17.99
2018-08-30T19:58:14.700Z,18.00
2018-08-30T20:03:07.219Z,17.99
2018-08-30T20:07:59.771Z,17.95
2018-08-30T20:12:52.296Z,17.92
2018-08-30T20:17:44.856Z,17.90
2018-08-30T20:22:37.394Z,17.86
2018-08-30T20:27:29.978Z,17.78
2018-08-30T20:32:23.426Z,17.75
2018-08-30T20:37:15.881Z,17.74
2018-08-30T20:42:08.656Z,17.72
2018-08-30T20:47:02.249Z,17.71
2018-08-30T20:51:54.751Z,17.66
2018-08-30T20:56:47.268Z,17.63
2018-08-30T21:01:39.744Z,17.61
2018-08-30T21:06:32.297Z,17.57
2018-08-30T21:11:24.808Z,17.51
2018-08-30T21:16:17.495Z,17.53
2018-08-30T21:21:10.214Z,17.55
2018-08-30T21:26:02.892Z,17.57
2018-08-30T21:30:55.382Z,17.51
2018-08-30T21:35:47.878Z,17.46
2018-08-30T21:40:40.395Z,17.45
2018-08-30T21:45:32.889Z,17.43
2018-08-30T21:50:25.464Z,17.44
2018-08-30T21:55:18.041Z,17.39
2018-08-30T22:00:10.611Z,17.42
2018-08-30T22:05:03.355Z,17.38
2018-08-30T22:09:56.127Z,17.35
2018-08-30T22:14:48.708Z,17.29
2018-08-30T22:19:41.323Z,17.24
2018-08-30T22:24:33.923Z,17.23
2018-08-30T22:29:26.478Z,17.13
2018-08-30T22:34:19.005Z,17.06
2018-08-30T22:39:11.579Z,17.01
2018-08-30T22:44:04.234Z,16.97
2018-08-30T22:48:56.808Z,16.94
2018-08-30T22:53:49.508Z,16.90
2018-08-30T22:58:42.228Z,16.89
2018-08-30T23:03:34.971Z,16.87
2018-08-30T23:08:27.529Z,16.83
2018-08-30T23:13:19.989Z,16.84
2018-08-30T23:18:12.599Z,16.87
2018-08-30T23:23:05.211Z,16.81
2018-08-30T23:27:57.765Z,16.72
2018-08-30T23:32:50.320Z,16.68
2018-08-30T23:37:42.906Z,16.63
2018-08-30T23:42:35.471Z,16.58
2018-08-30T23:47:27.992Z,16.51
2018-08-30T23:52:20.595Z,16.47
2018-08-30T23:57:13.306Z,16.44
